Kannapolis, North Carolina
Current Conditions -  °F | °C
As of 4:35 AM on Sunday 23 Nov 2014 (Local Time) from KJQF Reporting Station
Overcast Overcast  
Wind Chill: 43°   Ceiling: 2000
Heat Index: 43°   Visibility: 10mi
Dew Point: 32°   Wind: 0mph
Humidity: 66%   Direction: NA
Pressure: 30.29"   Gusts: NA
Location:  35.5°N, 80.64°W
Report Text: KJQF 230935Z AUTO 00000KT 10SM SCT010 OVC020 06/00 A3029 RMK AO2
Loading
Personal Weather Stations






























Interactive Weather Map New forecast layout! Learn more

10-Day Weather Forecast

Advertisements
Track Severe Weather on mobile